Main page
METAR-TAF:

METAR-TAF

Airports :

Dawson Community Airport

Glendive, Montana, United States

latitude: 47-08N, longitude: 104-48W, elevation: 2457 ft

Current weather observation

The report was made 37 minutes ago, at 12:56 UTC
Wind 8 mph from the South
Temperature -4°F
Humidity 77%
Pressure 30.12 in. Hg
Visibility: 10 miles
Clear sky

METAR: KGDV 031256Z AUTO 17007KT 10SM CLR M20/M23 A3012 RMK AO2 SLP269 T12001228 FZRANO

Time: 06:33 (13:33 UTC)

Forecast

The report was made 2 hours and 13 minutes ago, at 11:20 UTC
Forecast valid from 03 at 12 UTC to 04 at 12 UTC
Wind 7 mph from variable directions
Visibility: 6 miles
Few clouds at a height of 5000 ft
From 03 at 1800 UTC
Wind 12 mph from the Southwest
Visibility: 6 miles
Scattered clouds at a height of 14000 ft
From 04 at 0300 UTC
Wind 12 mph from the West
Visibility: 6 miles
Few clouds at a height of 15000 ft

TAF: KGDV 031120Z 0312/0412 VRB06KT P6SM FEW050 FM031800 23010KT P6SM SCT140 FM040300 26010KT P6SM FEW150

Weather observations and forecasts of more than 4000 airports (METAR and TAF reports).

The available stations are represented by yellow and red dots on the map.

Hover mouse over dot to see the name of the station.

Then click to see weather observations and forecasts.

To change the map : click on the green buttons with a black cross to zoom in, on the green button with a dash to zoom out, or on the green arrows for adjacent maps.


METAR-TAF: